Time;durP1;ratioP1;P1;durP2;ratioP2;P2;SDS_P1;SDS_P2;PMS_P1;PMS_P2;Temp;Humidity;BMP_temperature;BMP_pressure;BME280_temperature;BME280_humidity;BME280_pressure;Samples;Min_cycle;Max_cycle;Signal;HPM_P1;HPM_P2
2022/07/02 00:00:06;;;;;;;5.75;3.05;;;11.30;99.90;;;;;;5048160;28;20041;-54
2022/07/02 00:02:36;;;;;;;5.25;2.75;;;11.20;99.90;;;;;;5047861;28;20083;-55
2022/07/02 00:05:06;;;;;;;6.72;3.13;;;12.00;99.90;;;;;;5048184;28;20528;-55
2022/07/02 00:07:33;;;;;;;7.55;3.08;;;11.30;99.90;;;;;;5047557;28;20045;-55
2022/07/02 00:09:59;;;;;;;4.30;2.50;;;11.90;99.90;;;;;;5028981;28;20136;-55
2022/07/02 00:12:26;;;;;;;5.35;3.42;;;11.70;99.90;;;;;;5047944;28;20052;-54
2022/07/02 00:14:54;;;;;;;5.93;3.22;;;11.60;99.90;;;;;;5048225;28;20094;-55
2022/07/02 00:17:21;;;;;;;6.35;3.33;;;11.30;99.90;;;;;;5048032;28;20049;-55
2022/07/02 00:19:47;;;;;;;7.65;2.92;;;11.60;99.90;;;;;;5048142;28;20033;-55
2022/07/02 00:22:15;;;;;;;6.20;2.80;;;12.20;99.90;;;;;;5047780;28;20102;-54
2022/07/02 00:24:41;;;;;;;5.70;3.08;;;11.80;99.90;;;;;;5047138;28;20418;-55
2022/07/02 00:27:12;;;;;;;6.20;2.97;;;11.70;99.90;;;;;;5046240;28;20064;-55
2022/07/02 00:30:12;;;;;;;6.80;3.40;;;11.60;99.90;;;;;;5045927;28;20055;-54
2022/07/02 00:32:38;;;;;;;4.63;3.22;;;11.40;99.90;;;;;;5047413;28;20053;-55
2022/07/02 00:35:09;;;;;;;6.10;2.75;;;11.80;99.90;;;;;;5047351;28;20403;-54
2022/07/02 00:37:39;;;;;;;8.85;2.78;;;11.30;99.90;;;;;;5047140;28;20041;-54
2022/07/02 00:40:06;;;;;;;3.38;2.67;;;11.90;99.90;;;;;;5047193;28;20498;-54
2022/07/02 00:42:31;;;;;;;4.15;2.25;;;11.30;99.90;;;;;;5047147;28;20057;-54
2022/07/02 00:44:57;;;;;;;5.03;3.20;;;11.70;99.90;;;;;;5047523;28;20110;-54
2022/07/02 00:47:25;;;;;;;8.60;3.70;;;11.40;99.90;;;;;;5046959;28;20773;-54
2022/07/02 00:49:51;;;;;;;6.60;2.83;;;11.70;99.90;;;;;;5047583;28;20056;-54
2022/07/02 00:52:17;;;;;;;6.53;3.33;;;11.60;99.90;;;;;;5051342;28;20041;-54
2022/07/02 00:54:43;;;;;;;6.22;2.88;;;11.80;99.90;;;;;;5051370;28;20056;-54
2022/07/02 00:57:08;;;;;;;4.50;2.95;;;11.30;99.90;;;;;;5051665;28;20037;-54
2022/07/02 00:59:35;;;;;;;6.30;2.90;;;11.80;99.90;;;;;;5050967;28;20056;-55
2022/07/02 01:02:01;;;;;;;6.32;2.78;;;11.50;99.90;;;;;;5051222;28;20135;-54
2022/07/02 01:04:29;;;;;;;7.53;2.90;;;11.60;99.90;;;;;;5050983;28;20152;-54
2022/07/02 01:07:02;;;;;;;6.18;2.97;;;11.60;99.90;;;;;;5051204;28;20110;-55
2022/07/02 01:12:16;;;;;;;5.30;2.83;;;11.70;99.90;;;;;;5050990;28;20056;-54
2022/07/02 01:14:44;;;;;;;6.32;3.28;;;11.50;99.90;;;;;;5050753;28;20413;-54
2022/07/02 01:17:09;;;;;;;7.68;3.60;;;11.60;99.90;;;;;;5050861;28;20399;-54
2022/07/02 01:19:35;;;;;;;8.15;2.90;;;11.30;99.90;;;;;;5050718;28;20041;-54
2022/07/02 01:22:33;;;;;;;4.13;2.63;;;11.30;99.90;;;;;;5051114;28;20451;-54
2022/07/02 01:24:59;;;;;;;7.95;3.00;;;11.00;99.90;;;;;;5050762;28;20044;-54
2022/07/02 01:27:25;;;;;;;5.85;3.05;;;10.90;99.90;;;;;;5050945;28;20045;-54
2022/07/02 01:29:51;;;;;;;6.07;3.13;;;10.90;99.90;;;;;;5051074;28;20040;-54
2022/07/02 01:32:18;;;;;;;7.15;3.10;;;11.30;99.90;;;;;;5050777;28;20053;-55
2022/07/02 01:34:52;;;;;;;3.90;2.90;;;11.10;99.90;;;;;;5050164;28;20044;-55
2022/07/02 01:37:20;;;;;;;9.02;3.58;;;10.90;99.90;;;;;;5050737;28;20094;-54
2022/07/02 01:39:47;;;;;;;5.57;3.45;;;11.10;99.90;;;;;;5050578;28;20049;-54
2022/07/02 01:42:13;;;;;;;5.40;3.10;;;11.10;99.90;;;;;;5050840;28;20041;-54
2022/07/02 01:44:40;;;;;;;5.55;3.53;;;11.60;99.90;;;;;;5050302;28;20502;-54
2022/07/02 01:47:08;;;;;;;8.38;3.63;;;11.30;99.90;;;;;;5050507;28;20067;-53
2022/07/02 01:49:36;;;;;;;7.68;3.40;;;11.40;99.90;;;;;;5050087;28;20059;-54
2022/07/02 01:52:02;;;;;;;7.35;3.72;;;11.40;99.90;;;;;;5050490;28;20366;-54
2022/07/02 01:54:28;;;;;;;6.30;3.83;;;10.80;99.90;;;;;;5050085;28;20033;-54
2022/07/02 01:56:54;;;;;;;7.20;3.72;;;11.20;99.90;;;;;;5050509;28;20040;-54
2022/07/02 01:59:20;;;;;;;4.70;3.33;;;11.00;99.90;;;;;;5050229;28;20041;-54
2022/07/02 02:01:46;;;;;;;8.55;3.95;;;11.00;99.90;;;;;;5049310;28;20716;-55
2022/07/02 02:04:12;;;;;;;8.82;3.53;;;11.10;99.90;;;;;;5050377;28;20048;-54
2022/07/02 02:06:38;;;;;;;7.15;4.03;;;11.60;99.90;;;;;;5048526;28;20398;-54
2022/07/02 02:09:05;;;;;;;5.88;3.63;;;11.30;99.90;;;;;;5048212;28;20052;-54
2022/07/02 02:11:31;;;;;;;8.38;3.78;;;10.60;99.90;;;;;;5049064;28;20082;-54
2022/07/02 02:13:58;;;;;;;8.55;3.55;;;10.60;99.90;;;;;;5048649;28;20542;-54
2022/07/02 02:16:25;;;;;;;6.55;3.80;;;11.50;99.90;;;;;;5050263;28;20041;-54
2022/07/02 02:18:51;;;;;;;5.20;4.07;;;10.50;99.90;;;;;;5049699;28;20447;-53
2022/07/02 02:21:17;;;;;;;7.50;3.83;;;10.70;99.90;;;;;;5050145;28;20047;-54
2022/07/02 02:23:43;;;;;;;6.45;3.90;;;10.70;99.90;;;;;;5049605;28;20597;-53
2022/07/02 02:26:08;;;;;;;6.90;3.85;;;11.40;99.90;;;;;;5049641;28;20045;-53
2022/07/02 02:28:34;;;;;;;8.77;4.18;;;10.70;99.90;;;;;;5048032;28;20053;-54
2022/07/02 02:31:00;;;;;;;8.65;3.95;;;10.80;99.90;;;;;;5049670;28;20048;-54
2022/07/02 02:33:26;;;;;;;7.00;4.10;;;11.00;99.90;;;;;;5049674;28;20045;-54
2022/07/02 02:35:51;;;;;;;8.48;4.05;;;10.80;99.90;;;;;;5049351;28;20044;-54
2022/07/02 02:38:17;;;;;;;7.50;4.35;;;10.60;99.90;;;;;;5049448;28;20041;-53
2022/07/02 02:40:43;;;;;;;10.77;4.57;;;11.50;99.90;;;;;;5049265;28;20029;-54
2022/07/02 02:43:08;;;;;;;7.10;4.28;;;10.90;99.90;;;;;;5049449;28;20041;-54
2022/07/02 02:45:34;;;;;;;8.75;4.28;;;10.70;99.90;;;;;;5049226;28;20451;-54
2022/07/02 02:48:00;;;;;;;8.45;5.28;;;11.20;99.90;;;;;;5049220;28;20032;-54
2022/07/02 02:50:26;;;;;;;9.63;4.45;;;10.90;99.90;;;;;;5049507;28;20040;-54
2022/07/02 02:52:52;;;;;;;9.23;4.38;;;10.50;99.90;;;;;;5049138;28;20036;-54
2022/07/02 02:55:18;;;;;;;10.02;5.05;;;11.20;99.90;;;;;;5048862;28;20053;-52
2022/07/02 02:57:44;;;;;;;6.25;4.97;;;10.40;99.90;;;;;;5049081;28;20037;-53
2022/07/02 03:00:10;;;;;;;7.97;4.32;;;10.30;99.90;;;;;;5049238;28;20536;-56
2022/07/02 03:02:35;;;;;;;6.60;4.72;;;10.40;99.90;;;;;;5048820;28;20478;-54
2022/07/02 03:05:01;;;;;;;11.35;5.63;;;10.40;99.90;;;;;;5048965;28;20103;-53
2022/07/02 03:07:27;;;;;;;11.40;5.63;;;10.30;99.90;;;;;;5049032;28;20275;-53
2022/07/02 03:09:52;;;;;;;8.45;5.45;;;10.40;99.90;;;;;;5047714;28;20057;-54
2022/07/02 03:12:18;;;;;;;9.77;5.43;;;10.60;99.90;;;;;;5049208;28;20497;-53
2022/07/02 03:14:44;;;;;;;10.32;5.30;;;10.60;99.90;;;;;;5049873;28;20044;-54
2022/07/02 03:17:09;;;;;;;9.18;5.95;;;10.80;99.90;;;;;;5050934;28;20047;-53
2022/07/02 03:19:35;;;;;;;9.50;5.97;;;10.80;99.90;;;;;;5051001;28;20120;-53
2022/07/02 03:22:01;;;;;;;10.18;6.13;;;10.50;99.90;;;;;;5051029;28;20081;-53
2022/07/02 03:24:26;;;;;;;11.88;6.20;;;10.30;99.90;;;;;;5050806;28;20045;-54
2022/07/02 03:26:52;;;;;;;7.95;6.72;;;10.80;99.90;;;;;;5050976;28;20052;-54
2022/07/02 03:29:17;;;;;;;11.05;6.30;;;11.00;99.90;;;;;;5051076;28;20470;-54
2022/07/02 03:31:43;;;;;;;10.90;6.15;;;10.60;99.90;;;;;;5051130;28;20372;-54
2022/07/02 03:34:09;;;;;;;13.05;6.90;;;10.60;99.90;;;;;;5051184;28;20045;-54
2022/07/02 03:36:34;;;;;;;13.25;7.22;;;10.50;99.90;;;;;;5051270;28;20090;-54
2022/07/02 03:39:00;;;;;;;8.60;6.20;;;11.60;99.90;;;;;;5050876;28;20067;-53
2022/07/02 03:41:26;;;;;;;9.10;6.95;;;11.60;99.90;;;;;;5050931;28;20033;-54
2022/07/02 03:43:51;;;;;;;10.15;7.30;;;10.80;99.90;;;;;;5050707;28;20040;-53
2022/07/02 03:46:18;;;;;;;9.65;6.68;;;10.40;99.90;;;;;;5049189;28;20069;-54
2022/07/02 03:48:44;;;;;;;9.93;6.95;;;10.60;99.90;;;;;;5050664;28;20045;-54
2022/07/02 03:51:09;;;;;;;12.18;8.05;;;10.70;99.90;;;;;;5050636;28;20131;-54
2022/07/02 03:53:35;;;;;;;9.82;7.47;;;10.80;99.90;;;;;;5050415;28;20133;-53
2022/07/02 03:56:02;;;;;;;17.90;8.32;;;11.40;99.90;;;;;;5050078;28;20041;-54
2022/07/02 03:58:27;;;;;;;13.38;9.25;;;10.80;99.90;;;;;;5050715;28;20044;-54
2022/07/02 04:00:53;;;;;;;8.13;7.20;;;10.90;99.90;;;;;;5050148;28;20398;-54
2022/07/02 04:03:18;;;;;;;9.45;7.88;;;11.00;99.90;;;;;;5050382;28;20119;-54
2022/07/02 04:05:44;;;;;;;12.73;7.95;;;10.90;99.90;;;;;;5050334;28;20402;-54
2022/07/02 04:08:10;;;;;;;8.75;7.18;;;10.90;99.90;;;;;;5050328;28;20461;-54
2022/07/02 04:10:35;;;;;;;10.32;7.97;;;10.90;99.90;;;;;;5050018;28;20143;-54
2022/07/02 04:13:01;;;;;;;14.93;7.68;;;11.20;99.90;;;;;;5050603;28;20395;-54
2022/07/02 04:15:27;;;;;;;8.18;7.38;;;12.00;99.90;;;;;;5050509;28;20052;-54
2022/07/02 04:17:53;;;;;;;11.98;7.97;;;11.30;99.90;;;;;;5050801;28;20037;-54
2022/07/02 04:20:19;;;;;;;10.40;7.53;;;11.30;99.90;;;;;;5050582;28;20436;-54
2022/07/02 04:22:46;;;;;;;10.40;7.32;;;12.10;99.90;;;;;;5050097;28;20049;-54
2022/07/02 04:25:12;;;;;;;13.82;6.10;;;13.00;99.90;;;;;;5049994;28;20041;-53
2022/07/02 04:27:38;;;;;;;8.05;5.10;;;13.30;99.90;;;;;;5050018;28;20049;-54
2022/07/02 04:30:04;;;;;;;8.40;5.47;;;13.30;99.90;;;;;;5048728;28;20048;-54
2022/07/02 04:32:29;;;;;;;10.13;4.97;;;13.20;99.90;;;;;;5050247;28;20077;-54
2022/07/02 04:34:55;;;;;;;8.32;4.97;;;13.20;99.90;;;;;;5050110;28;20134;-55
2022/07/02 04:37:21;;;;;;;5.55;4.50;;;13.90;99.90;;;;;;5050200;28;20069;-55
2022/07/02 04:39:46;;;;;;;8.27;4.45;;;13.30;99.90;;;;;;5049966;28;20044;-54
2022/07/02 04:42:12;;;;;;;6.82;4.50;;;13.90;99.90;;;;;;5050186;28;20119;-54
2022/07/02 04:44:38;;;;;;;6.65;4.45;;;13.20;99.90;;;;;;5050153;28;20449;-55
2022/07/02 04:47:04;;;;;;;8.77;4.50;;;13.20;99.90;;;;;;5049952;28;20040;-54
2022/07/02 04:49:32;;;;;;;9.50;4.68;;;13.30;99.90;;;;;;5050050;28;20483;-55
2022/07/02 04:51:58;;;;;;;8.25;4.57;;;13.50;99.90;;;;;;5049857;28;20052;-54
2022/07/02 04:54:23;;;;;;;7.38;4.78;;;13.40;99.90;;;;;;5049704;28;20486;-54
2022/07/02 04:56:49;;;;;;;8.65;5.00;;;13.50;99.90;;;;;;5049746;28;20041;-54
2022/07/02 04:59:16;;;;;;;7.95;5.07;;;13.50;99.90;;;;;;5049751;28;20482;-55
2022/07/02 05:01:41;;;;;;;7.53;5.78;;;13.60;99.90;;;;;;5050033;28;20127;-54
2022/07/02 05:04:07;;;;;;;8.43;5.35;;;14.00;99.90;;;;;;5049835;28;20616;-55
2022/07/02 05:06:33;;;;;;;7.15;5.13;;;13.90;99.90;;;;;;5049703;28;20071;-55
2022/07/02 05:08:58;;;;;;;8.75;5.55;;;14.20;99.90;;;;;;5049339;28;20053;-55
2022/07/02 05:11:24;;;;;;;9.13;5.90;;;14.20;99.90;;;;;;5049218;28;20041;-55
2022/07/02 05:13:50;;;;;;;7.70;5.05;;;14.20;99.90;;;;;;5049698;28;20440;-54
2022/07/02 05:16:16;;;;;;;6.40;4.80;;;14.20;99.90;;;;;;5049746;28;20124;-55
2022/07/02 05:18:42;;;;;;;6.80;5.15;;;14.40;99.90;;;;;;5050145;28;20124;-55
2022/07/02 05:21:08;;;;;;;8.88;4.65;;;14.50;99.90;;;;;;5049801;28;20426;-55
2022/07/02 05:23:34;;;;;;;8.27;4.80;;;14.60;99.90;;;;;;5049698;28;20041;-55
2022/07/02 05:26:00;;;;;;;7.10;4.70;;;14.80;99.90;;;;;;5049251;28;20381;-55
2022/07/02 05:28:26;;;;;;;7.97;4.85;;;15.90;99.90;;;;;;5049697;28;20116;-55
2022/07/02 05:30:52;;;;;;;9.70;5.05;;;15.50;99.90;;;;;;5049452;28;20179;-55
2022/07/02 05:33:18;;;;;;;7.53;4.32;;;15.60;99.90;;;;;;5049710;28;20077;-54
2022/07/02 05:35:44;;;;;;;7.45;4.78;;;15.90;99.90;;;;;;5049578;28;20045;-54
2022/07/02 05:38:09;;;;;;;7.15;4.47;;;16.10;99.90;;;;;;5051681;28;20399;-55
2022/07/02 05:40:35;;;;;;;8.98;3.83;;;16.20;99.90;;;;;;5052798;28;20394;-55
2022/07/02 05:43:02;;;;;;;8.73;3.50;;;16.80;99.90;;;;;;5052969;28;20040;-55
2022/07/02 05:45:28;;;;;;;6.05;3.58;;;16.70;99.90;;;;;;5053260;28;20049;-55
2022/07/02 05:47:53;;;;;;;5.20;3.15;;;16.70;99.90;;;;;;5052198;28;20048;-55
2022/07/02 05:50:19;;;;;;;6.35;2.67;;;16.90;99.90;;;;;;5052822;28;20406;-55
2022/07/02 05:52:45;;;;;;;6.00;3.40;;;17.50;99.90;;;;;;5052921;28;20407;-55
2022/07/02 05:55:11;;;;;;;4.72;3.00;;;17.20;99.90;;;;;;5052291;28;20063;-56
2022/07/02 05:57:38;;;;;;;4.32;2.30;;;;;;;;;;5052530;28;20037;-56
2022/07/02 06:00:05;;;;;;;4.22;2.30;;;20.20;99.90;;;;;;5052521;28;20123;-56
2022/07/02 06:02:31;;;;;;;3.88;1.95;;;21.10;98.70;;;;;;5052344;28;20044;-56
2022/07/02 06:04:56;;;;;;;6.03;2.17;;;21.10;95.80;;;;;;5052193;28;20119;-56
2022/07/02 06:07:40;;;;;;;5.32;2.20;;;20.90;95.90;;;;;;5052586;28;20052;-56
2022/07/02 06:10:07;;;;;;;4.43;1.85;;;21.30;94.70;;;;;;5052195;28;20107;-56
2022/07/02 06:12:33;;;;;;;5.53;1.77;;;21.80;93.50;;;;;;5052466;28;20036;-56
2022/07/02 06:14:58;;;;;;;3.13;1.23;;;22.80;91.80;;;;;;5052280;28;20043;-56
2022/07/02 06:17:24;;;;;;;3.05;1.45;;;22.30;92.00;;;;;;5051749;28;20045;-56
2022/07/02 06:19:51;;;;;;;3.65;1.10;;;22.20;92.50;;;;;;5052319;28;20356;-56
2022/07/02 06:22:17;;;;;;;4.57;1.40;;;22.60;91.80;;;;;;5052440;28;20391;-56
2022/07/02 06:24:42;;;;;;;4.00;1.30;;;24.10;89.60;;;;;;5052666;28;20099;-56
2022/07/02 06:27:08;;;;;;;3.20;1.00;;;25.60;84.10;;;;;;5051922;28;20077;-56
2022/07/02 06:29:34;;;;;;;5.55;1.30;;;26.90;77.40;;;;;;5051307;28;20072;-56
2022/07/02 06:32:00;;;;;;;5.32;0.90;;;27.50;72.90;;;;;;5051858;28;20040;-56
2022/07/02 06:34:25;;;;;;;2.67;1.17;;;26.70;72.40;;;;;;5052020;28;20466;-56
2022/07/02 06:36:51;;;;;;;4.47;0.98;;;25.80;75.30;;;;;;5052125;28;20475;-57
2022/07/02 06:39:17;;;;;;;3.30;0.80;;;26.40;75.90;;;;;;5051878;28;20051;-57
2022/07/02 06:44:27;;;;;;;1.58;0.60;;;29.10;68.30;;;;;;5051656;28;20132;-57
2022/07/02 06:46:54;;;;;;;2.15;0.80;;;29.80;66.30;;;;;;5050547;28;20128;-56
2022/07/02 06:49:20;;;;;;;2.72;0.50;;;30.50;66.20;;;;;;5051266;28;20457;-57
2022/07/02 06:51:46;;;;;;;4.30;0.50;;;31.90;63.10;;;;;;5051330;28;20128;-57
2022/07/02 06:54:11;;;;;;;2.42;0.50;;;33.00;59.50;;;;;;5050760;28;20050;-57
2022/07/02 06:56:37;;;;;;;3.20;0.50;;;33.70;57.70;;;;;;5051548;28;20074;-57
2022/07/02 06:59:06;;;;;;;4.63;0.85;;;34.40;55.50;;;;;;5051503;28;20067;-57
2022/07/02 07:01:32;;;;;;;2.35;0.43;;;34.90;52.40;;;;;;5051556;28;20112;-57
2022/07/02 07:03:58;;;;;;;4.30;0.30;;;35.50;52.20;;;;;;5050817;28;20494;-57
2022/07/02 07:06:31;;;;;;;2.88;0.40;;;36.10;50.90;;;;;;5049606;28;20159;-57
2022/07/02 07:08:57;;;;;;;2.75;0.32;;;36.60;50.80;;;;;;5047668;28;20118;-58
2022/07/02 07:11:22;;;;;;;3.53;0.40;;;37.00;49.30;;;;;;5048098;28;20057;-58
2022/07/02 07:13:49;;;;;;;8.50;0.63;;;37.20;48.40;;;;;;5047738;28;20128;-59
2022/07/02 07:16:15;;;;;;;1.23;0.30;;;37.50;47.10;;;;;;5046862;28;20065;-58
2022/07/02 07:18:44;;;;;;;2.33;0.30;;;37.80;46.20;;;;;;5047819;28;20507;-58
2022/07/02 07:21:10;;;;;;;2.20;0.47;;;37.90;45.80;;;;;;5047978;28;20079;-59
2022/07/02 07:23:35;;;;;;;3.17;0.40;;;38.20;45.70;;;;;;5048460;28;20132;-58
2022/07/02 07:26:01;;;;;;;1.33;0.30;;;38.50;46.20;;;;;;5048805;28;20122;-57
2022/07/02 07:28:27;;;;;;;1.85;0.20;;;38.90;44.80;;;;;;5048538;28;20047;-57
2022/07/02 07:30:53;;;;;;;1.10;0.20;;;38.90;43.40;;;;;;5048600;28;20048;-57
2022/07/02 07:33:19;;;;;;;1.60;0.40;;;39.10;43.20;;;;;;5047618;28;20045;-58
2022/07/02 07:35:45;;;;;;;2.55;0.20;;;39.10;42.60;;;;;;5047542;28;20041;-57
2022/07/02 07:38:11;;;;;;;2.00;0.30;;;39.40;43.40;;;;;;5047821;28;20049;-57
2022/07/02 07:40:37;;;;;;;1.50;0.20;;;39.70;42.40;;;;;;5047852;28;20041;-57
2022/07/02 07:43:03;;;;;;;1.55;0.20;;;39.80;41.90;;;;;;5047758;28;20108;-57
2022/07/02 07:45:29;;;;;;;2.25;0.22;;;39.90;41.90;;;;;;5047690;28;20613;-58
2022/07/02 07:47:55;;;;;;;1.73;0.20;;;40.20;41.20;;;;;;5047737;28;20399;-57
2022/07/02 07:50:21;;;;;;;0.77;0.20;;;40.40;41.10;;;;;;5047665;28;20059;-57
2022/07/02 07:52:47;;;;;;;2.50;0.30;;;40.50;41.60;;;;;;5047925;28;20045;-58
2022/07/02 07:55:13;;;;;;;3.55;0.30;;;40.70;40.60;;;;;;5047410;28;20041;-58
2022/07/02 07:57:39;;;;;;;0.90;0.13;;;40.70;40.20;;;;;;5048228;28;20095;-57
2022/07/02 08:00:06;;;;;;;2.55;0.22;;;40.70;39.70;;;;;;5047042;28;20041;-57
2022/07/02 08:02:32;;;;;;;3.35;0.43;;;40.80;38.90;;;;;;5048071;28;20041;-58
2022/07/02 08:04:57;;;;;;;2.10;0.20;;;40.90;39.70;;;;;;5048368;28;20064;-58
2022/07/02 08:07:24;;;;;;;1.10;0.20;;;41.10;39.10;;;;;;5047932;28;20368;-58
2022/07/02 08:09:53;;;;;;;3.55;0.20;;;40.80;38.80;;;;;;5046179;28;20065;-58
2022/07/02 08:12:22;;;;;;;0.47;0.10;;;40.70;39.50;;;;;;5046852;28;20088;-58
2022/07/02 08:14:48;;;;;;;1.85;0.20;;;40.70;38.00;;;;;;5047865;28;20052;-58
2022/07/02 08:17:14;;;;;;;1.25;0.10;;;39.60;38.20;;;;;;5047890;28;20120;-58
2022/07/02 08:19:40;;;;;;;1.20;0.20;;;39.50;38.40;;;;;;5048077;28;20073;-58
2022/07/02 08:22:05;;;;;;;1.33;0.20;;;39.60;39.10;;;;;;5047836;28;20554;-58
2022/07/02 08:24:31;;;;;;;1.58;0.30;;;39.90;39.00;;;;;;5047999;28;20052;-58
2022/07/02 08:26:57;;;;;;;2.03;0.20;;;40.30;39.10;;;;;;5047461;28;20080;-58
2022/07/02 08:29:22;;;;;;;0.80;0.10;;;40.70;38.60;;;;;;5046516;28;20123;-58
2022/07/02 08:31:48;;;;;;;0.75;0.10;;;41.00;38.60;;;;;;5047060;28;20156;-58
2022/07/02 08:34:14;;;;;;;1.63;0.20;;;41.10;38.10;;;;;;5046406;28;20041;-58
2022/07/02 08:36:40;;;;;;;2.65;0.10;;;41.40;37.10;;;;;;5047449;28;20083;-58
2022/07/02 08:39:06;;;;;;;1.02;0.10;;;41.70;37.00;;;;;;5047500;28;20037;-58
2022/07/02 08:41:32;;;;;;;1.15;0.10;;;42.00;37.80;;;;;;5048223;28;20051;-58
2022/07/02 08:44:01;;;;;;;2.78;0.20;;;42.30;37.90;;;;;;5047918;28;20053;-58
2022/07/02 08:46:28;;;;;;;1.35;0.13;;;42.40;37.30;;;;;;5047256;28;20107;-58
2022/07/02 08:48:55;;;;;;;2.03;0.10;;;42.80;37.40;;;;;;5047772;28;20053;-58
2022/07/02 08:51:21;;;;;;;0.73;0.10;;;43.30;36.70;;;;;;5048410;28;20530;-58
2022/07/02 08:53:47;;;;;;;1.83;0.10;;;43.40;36.60;;;;;;5047162;28;20135;-58
2022/07/02 08:56:14;;;;;;;0.82;0.10;;;43.40;35.10;;;;;;5047048;28;20550;-57
2022/07/02 08:58:40;;;;;;;2.78;0.17;;;43.30;35.30;;;;;;5049584;28;20124;-58
2022/07/02 09:01:08;;;;;;;2.70;0.10;;;43.30;36.20;;;;;;5049540;28;20037;-58
2022/07/02 09:03:35;;;;;;;1.95;0.40;;;43.50;35.90;;;;;;5049501;28;20067;-58
2022/07/02 09:06:03;;;;;;;0.70;0.10;;;43.70;35.30;;;;;;5049794;28;20037;-58
2022/07/02 09:08:30;;;;;;;1.70;0.10;;;43.70;34.50;;;;;;5049206;28;20107;-59
2022/07/02 09:10:57;;;;;;;1.10;0.00;;;43.80;35.30;;;;;;5049743;28;20040;-58
2022/07/02 09:13:24;;;;;;;1.75;0.10;;;44.00;34.30;;;;;;5053389;28;20128;-58
2022/07/02 09:15:51;;;;;;;0.88;0.15;;;44.20;34.60;;;;;;5051619;28;20080;-59
2022/07/02 09:18:18;;;;;;;1.75;0.17;;;44.30;34.20;;;;;;5051147;28;20445;-59
2022/07/02 09:20:43;;;;;;;1.23;0.00;;;44.60;34.70;;;;;;5050581;28;20049;-59
2022/07/02 09:23:20;;;;;;;1.48;0.10;;;44.60;34.00;;;;;;5051340;28;20126;-59
2022/07/02 09:25:46;;;;;;;1.63;0.10;;;44.50;32.60;;;;;;5050442;28;20045;-59
2022/07/02 09:28:13;;;;;;;2.53;0.10;;;44.60;34.10;;;;;;5051374;28;20175;-59
2022/07/02 09:30:39;;;;;;;1.58;0.03;;;44.90;34.50;;;;;;5051757;28;20049;-59
2022/07/02 09:33:28;;;;;;;0.90;0.08;;;45.00;34.00;;;;;;5047349;28;20797;-48
2022/07/02 09:35:55;;;;;;;0.25;0.00;;;45.10;33.60;;;;;;5043941;28;20479;-47
2022/07/02 09:38:20;;;;;;;1.90;0.15;;;44.40;33.00;;;;;;5047921;28;20037;-55
2022/07/02 09:40:54;;;;;;;0.73;0.10;;;44.20;33.70;;;;;;5048522;28;20447;-53
2022/07/02 09:43:33;;;;;;;1.00;0.17;;;44.50;33.70;;;;;;5048082;28;20076;-47
2022/07/02 09:46:00;;;;;;;1.02;0.00;;;43.70;33.70;;;;;;5048746;28;20090;-53
2022/07/02 09:48:26;;;;;;;1.83;0.10;;;43.30;33.90;;;;;;5048114;28;20041;-57
2022/07/02 09:50:52;;;;;;;0.68;0.10;;;43.10;34.20;;;;;;5048322;28;20108;-58
2022/07/02 09:53:18;;;;;;;0.68;0.00;;;42.50;34.50;;;;;;5047957;28;20103;-55
2022/07/02 09:55:51;;;;;;;1.42;0.25;;;41.00;34.10;;;;;;5048106;28;20525;-56
2022/07/02 09:58:24;;;;;;;1.67;0.10;;;40.20;35.40;;;;;;5047764;28;20280;-54
2022/07/02 10:00:50;;;;;;;0.95;0.00;;;39.50;35.80;;;;;;5048659;28;20091;-47
2022/07/02 10:03:16;;;;;;;1.45;0.22;;;39.50;36.10;;;;;;5047972;28;20041;-50
2022/07/02 10:05:48;;;;;;;0.95;0.00;;;39.50;36.90;;;;;;5048248;28;20068;-58
2022/07/02 10:08:13;;;;;;;0.50;0.00;;;39.80;36.60;;;;;;5047768;28;20511;-51
2022/07/02 10:10:39;;;;;;;1.75;0.10;;;39.40;36.20;;;;;;5047159;28;20059;-46
2022/07/02 10:13:06;;;;;;;1.55;0.10;;;39.00;37.20;;;;;;5047211;28;20041;-53
2022/07/02 10:15:36;;;;;;;1.83;0.10;;;38.90;37.40;;;;;;5047293;28;20077;-46
2022/07/02 10:18:03;;;;;;;1.63;0.03;;;39.30;37.30;;;;;;5047263;28;20041;-53
2022/07/02 10:20:33;;;;;;;1.85;0.20;;;39.60;37.10;;;;;;5046543;28;20587;-54
2022/07/02 10:23:00;;;;;;;;;;;39.70;36.30;;;;;;5047328;28;20433;-56
2022/07/02 10:25:26;;;;;;;0.75;0.00;;;39.90;38.60;;;;;;5047863;28;19920;-57
2022/07/02 10:27:54;;;;;;;0.55;0.10;;;39.80;36.40;;;;;;5048116;28;20098;-56
2022/07/02 10:30:21;;;;;;;1.23;0.20;;;39.90;36.70;;;;;;5047567;28;20037;-57
2022/07/02 10:32:59;;;;;;;1.35;0.10;;;39.70;35.90;;;;;;5047382;28;20045;-56
2022/07/02 10:35:26;;;;;;;1.42;0.10;;;40.00;37.20;;;;;;5047236;28;20059;-56
2022/07/02 10:38:01;;;;;;;1.55;0.10;;;40.20;36.50;;;;;;5047713;28;20041;-56
2022/07/02 10:40:27;;;;;;;1.05;0.10;;;40.60;36.80;;;;;;5046607;28;20445;-56
2022/07/02 10:42:57;;;;;;;0.50;0.10;;;40.00;36.40;;;;;;5047678;28;20040;-56
2022/07/02 10:45:24;;;;;;;0.93;0.13;;;39.40;36.20;;;;;;5047208;28;20076;-56
2022/07/02 10:48:01;;;;;;;2.72;0.17;;;37.90;35.80;;;;;;5046729;28;20059;-55
2022/07/02 10:50:47;;;;;;;1.27;0.10;;;36.60;36.40;;;;;;5047156;28;20136;-56
2022/07/02 10:53:15;;;;;;;1.75;0.10;;;35.50;38.60;;;;;;5047441;28;20106;-55
2022/07/02 10:55:42;;;;;;;0.95;0.10;;;34.70;39.80;;;;;;5047011;28;20077;-55
2022/07/02 10:58:17;;;;;;;1.92;0.22;;;33.40;40.70;;;;;;5047106;28;20120;-55
2022/07/02 11:00:43;;;;;;;2.95;0.20;;;32.20;41.80;;;;;;5046684;28;20052;-54
2022/07/02 11:03:18;;;;;;;1.65;0.10;;;30.90;43.60;;;;;;5046963;28;20045;-54
2022/07/02 11:05:56;;;;;;;1.00;0.10;;;30.20;44.90;;;;;;5046804;28;20040;-53
2022/07/02 11:08:36;;;;;;;2.92;0.28;;;29.90;46.70;;;;;;5046551;28;20056;-55
2022/07/02 11:11:02;;;;;;;2.92;0.20;;;29.60;47.30;;;;;;5044584;28;20485;-54
2022/07/02 11:13:40;;;;;;;1.23;0.13;;;29.10;54.90;;;;;;5046452;28;20045;-54
2022/07/02 11:16:26;;;;;;;1.77;0.20;;;28.60;47.90;;;;;;5046703;28;20639;-54
2022/07/02 11:18:53;;;;;;;0.70;0.10;;;28.10;49.00;;;;;;5047012;28;20041;-55
2022/07/02 11:21:21;;;;;;;1.55;0.10;;;27.70;53.20;;;;;;5046125;28;20033;-54
2022/07/02 11:23:48;;;;;;;0.75;0.10;;;27.30;56.10;;;;;;5046752;28;20542;-54
2022/07/02 11:26:18;;;;;;;1.05;0.00;;;26.90;54.30;;;;;;5046287;28;20040;-54
2022/07/02 11:28:45;;;;;;;3.13;0.10;;;26.60;52.80;;;;;;5046561;28;20479;-54
2022/07/02 11:31:11;;;;;;;3.25;0.10;;;26.80;53.70;;;;;;5046645;28;20041;-53
2022/07/02 11:33:44;;;;;;;1.20;0.10;;;26.70;53.20;;;;;;5046103;28;20548;-53
2022/07/02 11:36:10;;;;;;;0.88;0.20;;;26.60;52.10;;;;;;5044111;28;20518;-54
2022/07/02 11:38:40;;;;;;;1.50;0.10;;;26.40;51.90;;;;;;5046557;28;20029;-53
2022/07/02 11:41:18;;;;;;;1.25;0.10;;;26.20;52.70;;;;;;5045944;28;20044;-53
2022/07/02 11:43:45;;;;;;;2.30;0.10;;;26.00;53.70;;;;;;5046177;28;20579;-53
2022/07/02 11:46:16;;;;;;;1.90;0.10;;;25.80;53.80;;;;;;5046083;28;20044;-53
2022/07/02 11:48:42;;;;;;;0.73;0.10;;;25.90;55.20;;;;;;5046345;28;20037;-53
2022/07/02 11:51:08;;;;;;;0.75;0.10;;;25.90;54.40;;;;;;5046548;28;20502;-48
2022/07/02 11:53:36;;;;;;;1.52;0.20;;;25.90;54.70;;;;;;5046294;28;20041;-47
2022/07/02 11:56:09;;;;;;;0.50;0.10;;;26.10;55.00;;;;;;5046889;28;20106;-49
2022/07/02 11:58:41;;;;;;;1.52;0.10;;;26.30;55.70;;;;;;5047103;28;20044;-44
2022/07/02 12:01:26;;;;;;;2.13;0.30;;;26.60;55.00;;;;;;5047381;28;20045;-46
2022/07/02 12:03:55;;;;;;;1.98;0.30;;;26.90;56.50;;;;;;5047190;28;20032;-47
2022/07/02 12:06:23;;;;;;;0.90;0.10;;;26.80;55.20;;;;;;5047331;28;20077;-44
2022/07/02 12:08:52;;;;;;;1.85;0.30;;;26.70;54.80;;;;;;5046749;28;20056;-45
2022/07/02 12:11:19;;;;;;;1.77;0.10;;;26.70;54.80;;;;;;5046996;28;20056;-45
2022/07/02 12:13:46;;;;;;;3.28;0.30;;;26.60;55.20;;;;;;5046798;28;20036;-44
2022/07/02 12:16:17;;;;;;;1.38;0.15;;;26.70;55.60;;;;;;5047014;28;20425;-43
2022/07/02 12:18:44;;;;;;;1.40;0.10;;;26.80;55.20;;;;;;5046437;28;20166;-47
2022/07/02 12:21:18;;;;;;;3.25;0.13;;;26.70;55.90;;;;;;5046788;28;20112;-45
2022/07/02 12:23:49;;;;;;;1.35;0.10;;;26.60;56.30;;;;;;5046738;28;20210;-45
2022/07/02 12:26:19;;;;;;;;;;;26.60;56.50;;;;;;5046387;28;20033;-46
2022/07/02 12:31:51;;;;;;;4.07;0.20;;;26.90;54.50;;;;;;5046656;28;20059;-45
2022/07/02 12:34:18;;;;;;;3.15;0.20;;;26.70;54.70;;;;;;5045433;28;20045;-45
2022/07/02 12:36:55;;;;;;;1.70;0.10;;;26.60;55.40;;;;;;5046694;28;20040;-46
2022/07/02 12:39:22;;;;;;;3.88;0.55;;;26.50;56.10;;;;;;5046748;28;20497;-46
2022/07/02 12:41:48;;;;;;;1.05;0.10;;;26.50;55.40;;;;;;5046621;28;20044;-46
2022/07/02 12:44:19;;;;;;;2.25;0.20;;;26.60;56.50;;;;;;5047176;28;20041;-46
2022/07/02 12:46:50;;;;;;;1.35;0.20;;;26.70;56.40;;;;;;5048196;28;20808;-45
2022/07/02 12:49:18;;;;;;;1.85;0.28;;;26.50;55.00;;;;;;5051075;28;20041;-46
2022/07/02 12:52:01;;;;;;;3.10;0.32;;;26.40;54.80;;;;;;5050850;28;20037;-47
2022/07/02 12:54:37;;;;;;;1.30;0.20;;;26.30;54.00;;;;;;5050036;28;20045;-46
2022/07/02 12:57:18;;;;;;;1.88;0.10;;;26.10;54.80;;;;;;5050952;28;20106;-47